Aviation Digital Data Service (ADDS)

Output produced by METARs form (0325 UTC 30 May 2017)
found at http://www.aviationweather.gov/adds/metars/
 
TAF TUPJ 292300Z 3000/3024 10010KT 9999 SCT020 
     PROB30 
     TEMPO 3000/3012 SHRA 
     PROB40 
     TEMPO 3012/3018 SHRA